sensor_id;sensor_type;location;lat;lon;timestamp;temperature;humidity
20524;DHT22;10420;48.542;12.270;2023-01-23T00:04:23;-1.40;99.90
20524;DHT22;10420;48.542;12.270;2023-01-23T00:09:24;-1.40;99.90
20524;DHT22;10420;48.542;12.270;2023-01-23T00:14:24;-1.50;99.90
20524;DHT22;10420;48.542;12.270;2023-01-23T00:19:25;-1.30;99.90
20524;DHT22;10420;48.542;12.270;2023-01-23T00:24:26;-1.30;99.90
20524;DHT22;10420;48.542;12.270;2023-01-23T00:29:26;-1.20;99.90
20524;DHT22;10420;48.542;12.270;2023-01-23T00:34:27;-1.20;99.90
20524;DHT22;10420;48.542;12.270;2023-01-23T00:39:28;-1.30;99.90
20524;DHT22;10420;48.542;12.270;2023-01-23T00:44:29;-1.30;99.90
20524;DHT22;10420;48.542;12.270;2023-01-23T00:49:30;-1.30;99.90
20524;DHT22;10420;48.542;12.270;2023-01-23T00:54:30;-1.30;99.90
20524;DHT22;10420;48.542;12.270;2023-01-23T00:59:31;-1.50;99.90
20524;DHT22;10420;48.542;12.270;2023-01-23T01:04:32;-1.50;99.90
20524;DHT22;10420;48.542;12.270;2023-01-23T01:09:32;-1.40;99.90
20524;DHT22;10420;48.542;12.270;2023-01-23T01:14:33;-1.40;99.90
20524;DHT22;10420;48.542;12.270;2023-01-23T01:19:33;-1.30;99.90
20524;DHT22;10420;48.542;12.270;2023-01-23T01:24:34;-1.40;99.90
20524;DHT22;10420;48.542;12.270;2023-01-23T01:29:35;-1.40;99.90
20524;DHT22;10420;48.542;12.270;2023-01-23T01:34:35;-1.40;99.90
20524;DHT22;10420;48.542;12.270;2023-01-23T01:39:36;-1.30;99.90
20524;DHT22;10420;48.542;12.270;2023-01-23T01:45:03;-1.20;99.90
20524;DHT22;10420;48.542;12.270;2023-01-23T01:50:05;-1.20;99.90
20524;DHT22;10420;48.542;12.270;2023-01-23T01:55:06;-1.10;99.90
20524;DHT22;10420;48.542;12.270;2023-01-23T02:00:16;-0.80;99.90
20524;DHT22;10420;48.542;12.270;2023-01-23T02:05:40;-1.00;99.90
20524;DHT22;10420;48.542;12.270;2023-01-23T02:10:42;-1.00;99.90
20524;DHT22;10420;48.542;12.270;2023-01-23T02:15:44;-1.10;99.90
20524;DHT22;10420;48.542;12.270;2023-01-23T02:20:46;-1.10;99.90
20524;DHT22;10420;48.542;12.270;2023-01-23T02:26:00;-1.10;99.90
20524;DHT22;10420;48.542;12.270;2023-01-23T02:31:02;-1.00;99.90
20524;DHT22;10420;48.542;12.270;2023-01-23T02:36:04;-0.90;99.90
20524;DHT22;10420;48.542;12.270;2023-01-23T02:41:08;-0.90;99.90
20524;DHT22;10420;48.542;12.270;2023-01-23T02:46:11;-0.90;99.90
20524;DHT22;10420;48.542;12.270;2023-01-23T02:51:12;-0.90;99.90
20524;DHT22;10420;48.542;12.270;2023-01-23T02:56:13;-0.90;99.90
20524;DHT22;10420;48.542;12.270;2023-01-23T03:01:14;-0.80;99.90
20524;DHT22;10420;48.542;12.270;2023-01-23T03:06:15;-1.00;99.90
20524;DHT22;10420;48.542;12.270;2023-01-23T03:11:17;-1.00;99.90
20524;DHT22;10420;48.542;12.270;2023-01-23T03:16:18;-0.90;99.90
20524;DHT22;10420;48.542;12.270;2023-01-23T03:21:18;-1.10;99.90
20524;DHT22;10420;48.542;12.270;2023-01-23T03:26:19;-1.10;99.90
20524;DHT22;10420;48.542;12.270;2023-01-23T03:31:20;-0.90;99.90
20524;DHT22;10420;48.542;12.270;2023-01-23T03:36:20;-1.00;99.90
20524;DHT22;10420;48.542;12.270;2023-01-23T03:41:21;-1.00;99.90
20524;DHT22;10420;48.542;12.270;2023-01-23T03:46:24;-1.10;99.90
20524;DHT22;10420;48.542;12.270;2023-01-23T03:51:25;-1.00;99.90
20524;DHT22;10420;48.542;12.270;2023-01-23T03:56:25;-0.90;99.90
20524;DHT22;10420;48.542;12.270;2023-01-23T04:01:26;-0.70;99.90
20524;DHT22;10420;48.542;12.270;2023-01-23T04:06:27;-0.50;99.90
20524;DHT22;10420;48.542;12.270;2023-01-23T04:11:28;-0.80;99.90
20524;DHT22;10420;48.542;12.270;2023-01-23T04:16:28;-0.60;99.90
20524;DHT22;10420;48.542;12.270;2023-01-23T04:21:29;-0.90;99.90
20524;DHT22;10420;48.542;12.270;2023-01-23T04:26:30;-1.00;99.90
20524;DHT22;10420;48.542;12.270;2023-01-23T04:31:30;-0.80;99.90
20524;DHT22;10420;48.542;12.270;2023-01-23T04:36:31;-0.70;99.90
20524;DHT22;10420;48.542;12.270;2023-01-23T04:41:32;-0.90;99.90
20524;DHT22;10420;48.542;12.270;2023-01-23T04:46:32;-0.80;99.90
20524;DHT22;10420;48.542;12.270;2023-01-23T04:51:33;-0.80;99.90
20524;DHT22;10420;48.542;12.270;2023-01-23T04:56:34;-0.60;99.90
20524;DHT22;10420;48.542;12.270;2023-01-23T05:01:35;-0.70;99.90
20524;DHT22;10420;48.542;12.270;2023-01-23T05:06:36;-0.80;99.90
20524;DHT22;10420;48.542;12.270;2023-01-23T05:11:36;-0.70;99.90
20524;DHT22;10420;48.542;12.270;2023-01-23T05:16:37;-0.70;99.90
20524;DHT22;10420;48.542;12.270;2023-01-23T05:21:38;-0.50;99.90
20524;DHT22;10420;48.542;12.270;2023-01-23T05:26:38;-0.50;99.90
20524;DHT22;10420;48.542;12.270;2023-01-23T05:31:39;-0.60;99.90
20524;DHT22;10420;48.542;12.270;2023-01-23T05:36:40;-0.60;99.90
20524;DHT22;10420;48.542;12.270;2023-01-23T05:41:40;-0.80;99.90
20524;DHT22;10420;48.542;12.270;2023-01-23T05:46:41;-0.90;99.90
20524;DHT22;10420;48.542;12.270;2023-01-23T05:51:43;-0.70;99.90
20524;DHT22;10420;48.542;12.270;2023-01-23T05:56:43;-0.50;99.90
20524;DHT22;10420;48.542;12.270;2023-01-23T06:01:44;-0.70;99.90
20524;DHT22;10420;48.542;12.270;2023-01-23T06:06:45;-0.50;99.90
20524;DHT22;10420;48.542;12.270;2023-01-23T06:11:45;-0.80;99.90
20524;DHT22;10420;48.542;12.270;2023-01-23T06:16:46;-0.80;99.90
20524;DHT22;10420;48.542;12.270;2023-01-23T06:21:46;-0.60;99.90
20524;DHT22;10420;48.542;12.270;2023-01-23T06:26:47;-0.50;99.90
20524;DHT22;10420;48.542;12.270;2023-01-23T06:31:48;-0.60;99.90
20524;DHT22;10420;48.542;12.270;2023-01-23T06:36:48;-0.60;99.90
20524;DHT22;10420;48.542;12.270;2023-01-23T06:41:49;-0.80;99.90
20524;DHT22;10420;48.542;12.270;2023-01-23T06:46:51;-0.50;99.90
20524;DHT22;10420;48.542;12.270;2023-01-23T06:51:52;-0.70;99.90
20524;DHT22;10420;48.542;12.270;2023-01-23T06:56:53;-0.80;99.90
20524;DHT22;10420;48.542;12.270;2023-01-23T07:01:53;-0.80;99.90
20524;DHT22;10420;48.542;12.270;2023-01-23T07:06:54;-0.80;99.90
20524;DHT22;10420;48.542;12.270;2023-01-23T07:11:55;-0.80;99.90
20524;DHT22;10420;48.542;12.270;2023-01-23T07:16:55;-0.70;99.90
20524;DHT22;10420;48.542;12.270;2023-01-23T07:21:56;-0.80;99.90
20524;DHT22;10420;48.542;12.270;2023-01-23T07:26:57;-0.70;99.90
20524;DHT22;10420;48.542;12.270;2023-01-23T07:31:58;-0.70;99.90
20524;DHT22;10420;48.542;12.270;2023-01-23T07:37:00;-0.50;99.90
20524;DHT22;10420;48.542;12.270;2023-01-23T07:42:01;-0.50;99.90
20524;DHT22;10420;48.542;12.270;2023-01-23T07:47:01;-0.50;99.90
20524;DHT22;10420;48.542;12.270;2023-01-23T07:52:03;-0.30;99.90
20524;DHT22;10420;48.542;12.270;2023-01-23T07:57:03;-0.40;99.90
20524;DHT22;10420;48.542;12.270;2023-01-23T08:02:04;-0.60;99.90
20524;DHT22;10420;48.542;12.270;2023-01-23T08:07:05;-0.50;99.90
20524;DHT22;10420;48.542;12.270;2023-01-23T08:12:05;-0.40;99.90
20524;DHT22;10420;48.542;12.270;2023-01-23T08:17:06;-0.30;99.90
20524;DHT22;10420;48.542;12.270;2023-01-23T08:22:07;-0.20;99.90
20524;DHT22;10420;48.542;12.270;2023-01-23T08:27:07;-0.20;99.90
20524;DHT22;10420;48.542;12.270;2023-01-23T08:32:08;-0.30;99.90
20524;DHT22;10420;48.542;12.270;2023-01-23T08:37:09;-0.10;99.90
20524;DHT22;10420;48.542;12.270;2023-01-23T08:42:09;0.30;99.90
20524;DHT22;10420;48.542;12.270;2023-01-23T08:47:10;0.40;99.90
20524;DHT22;10420;48.542;12.270;2023-01-23T08:52:10;0.20;99.90
20524;DHT22;10420;48.542;12.270;2023-01-23T08:57:11;0.30;99.90
20524;DHT22;10420;48.542;12.270;2023-01-23T09:02:12;0.10;99.90
20524;DHT22;10420;48.542;12.270;2023-01-23T09:07:12;0.30;99.90
20524;DHT22;10420;48.542;12.270;2023-01-23T09:12:13;0.60;99.90
20524;DHT22;10420;48.542;12.270;2023-01-23T09:17:14;0.90;99.90
20524;DHT22;10420;48.542;12.270;2023-01-23T09:22:15;1.00;99.90
20524;DHT22;10420;48.542;12.270;2023-01-23T09:27:16;1.20;99.90
20524;DHT22;10420;48.542;12.270;2023-01-23T09:32:17;1.60;99.90
20524;DHT22;10420;48.542;12.270;2023-01-23T09:37:18;1.90;99.90
20524;DHT22;10420;48.542;12.270;2023-01-23T09:42:22;2.00;99.90
20524;DHT22;10420;48.542;12.270;2023-01-23T09:47:42;1.60;99.90
20524;DHT22;10420;48.542;12.270;2023-01-23T09:52:52;1.40;99.90
20524;DHT22;10420;48.542;12.270;2023-01-23T09:57:57;1.10;99.90
20524;DHT22;10420;48.542;12.270;2023-01-23T10:03:02;1.20;99.90
20524;DHT22;10420;48.542;12.270;2023-01-23T10:29:34;1.70;99.90
20524;DHT22;10420;48.542;12.270;2023-01-23T10:40:13;1.90;99.90
20524;DHT22;10420;48.542;12.270;2023-01-23T10:45:18;1.80;99.90
20524;DHT22;10420;48.542;12.270;2023-01-23T10:50:35;2.00;99.90
20524;DHT22;10420;48.542;12.270;2023-01-23T10:55:43;2.40;99.90
20524;DHT22;10420;48.542;12.270;2023-01-23T11:00:45;2.90;99.90
20524;DHT22;10420;48.542;12.270;2023-01-23T11:05:55;7.00;99.90
20524;DHT22;10420;48.542;12.270;2023-01-23T11:11:31;7.40;99.90
20524;DHT22;10420;48.542;12.270;2023-01-23T11:16:32;9.00;99.90
20524;DHT22;10420;48.542;12.270;2023-01-23T11:21:37;7.90;99.90
20524;DHT22;10420;48.542;12.270;2023-01-23T11:32:19;6.40;99.90
20524;DHT22;10420;48.542;12.270;2023-01-23T11:37:34;7.20;99.90
20524;DHT22;10420;48.542;12.270;2023-01-23T11:42:38;7.60;99.90
20524;DHT22;10420;48.542;12.270;2023-01-23T11:53:00;3.70;99.90
20524;DHT22;10420;48.542;12.270;2023-01-23T12:08:52;3.10;99.90
20524;DHT22;10420;48.542;12.270;2023-01-23T12:14:15;3.10;99.90
20524;DHT22;10420;48.542;12.270;2023-01-23T12:19:34;3.30;99.90
20524;DHT22;10420;48.542;12.270;2023-01-23T12:24:57;2.90;99.90
20524;DHT22;10420;48.542;12.270;2023-01-23T12:30:11;2.70;99.90
20524;DHT22;10420;48.542;12.270;2023-01-23T12:35:40;2.70;99.90
20524;DHT22;10420;48.542;12.270;2023-01-23T12:41:05;2.90;99.90
20524;DHT22;10420;48.542;12.270;2023-01-23T12:46:15;2.70;99.90
20524;DHT22;10420;48.542;12.270;2023-01-23T12:51:21;2.70;99.90
20524;DHT22;10420;48.542;12.270;2023-01-23T12:56:28;2.50;99.90
20524;DHT22;10420;48.542;12.270;2023-01-23T13:01:45;2.40;99.90
20524;DHT22;10420;48.542;12.270;2023-01-23T13:07:16;2.40;99.90
20524;DHT22;10420;48.542;12.270;2023-01-23T13:12:25;2.50;99.90
20524;DHT22;10420;48.542;12.270;2023-01-23T13:22:32;2.50;99.90
20524;DHT22;10420;48.542;12.270;2023-01-23T13:27:55;2.50;99.90
20524;DHT22;10420;48.542;12.270;2023-01-23T13:38:32;2.60;99.90
20524;DHT22;10420;48.542;12.270;2023-01-23T13:43:54;2.80;99.90
20524;DHT22;10420;48.542;12.270;2023-01-23T13:54:55;2.70;99.90
20524;DHT22;10420;48.542;12.270;2023-01-23T14:00:22;2.60;99.90
20524;DHT22;10420;48.542;12.270;2023-01-23T14:05:28;2.70;99.90
20524;DHT22;10420;48.542;12.270;2023-01-23T14:10:35;2.50;99.90
20524;DHT22;10420;48.542;12.270;2023-01-23T14:15:38;2.60;99.90
20524;DHT22;10420;48.542;12.270;2023-01-23T14:26:04;2.50;99.90
20524;DHT22;10420;48.542;12.270;2023-01-23T14:31:06;2.50;99.90
20524;DHT22;10420;48.542;12.270;2023-01-23T14:36:20;2.40;99.90
20524;DHT22;10420;48.542;12.270;2023-01-23T14:41:23;2.60;99.90
20524;DHT22;10420;48.542;12.270;2023-01-23T14:46:36;2.60;99.90
20524;DHT22;10420;48.542;12.270;2023-01-23T14:51:38;2.60;99.90
20524;DHT22;10420;48.542;12.270;2023-01-23T14:56:39;2.50;99.90
20524;DHT22;10420;48.542;12.270;2023-01-23T15:01:39;2.50;99.90
20524;DHT22;10420;48.542;12.270;2023-01-23T15:06:40;2.30;99.90
20524;DHT22;10420;48.542;12.270;2023-01-23T15:11:42;2.30;99.90
20524;DHT22;10420;48.542;12.270;2023-01-23T15:16:43;2.20;99.90
20524;DHT22;10420;48.542;12.270;2023-01-23T15:21:44;2.20;99.90
20524;DHT22;10420;48.542;12.270;2023-01-23T15:27:00;1.90;99.90
20524;DHT22;10420;48.542;12.270;2023-01-23T15:32:12;2.00;99.90
20524;DHT22;10420;48.542;12.270;2023-01-23T15:37:21;2.00;99.90
20524;DHT22;10420;48.542;12.270;2023-01-23T15:42:27;2.00;99.90
20524;DHT22;10420;48.542;12.270;2023-01-23T15:47:30;2.00;99.90
20524;DHT22;10420;48.542;12.270;2023-01-23T15:52:47;1.90;99.90
20524;DHT22;10420;48.542;12.270;2023-01-23T15:57:48;1.80;99.90
20524;DHT22;10420;48.542;12.270;2023-01-23T16:02:55;1.80;99.90
20524;DHT22;10420;48.542;12.270;2023-01-23T16:07:56;1.60;99.90
20524;DHT22;10420;48.542;12.270;2023-01-23T16:13:00;1.70;99.90
20524;DHT22;10420;48.542;12.270;2023-01-23T16:18:02;1.70;99.90
20524;DHT22;10420;48.542;12.270;2023-01-23T16:23:09;1.60;99.90
20524;DHT22;10420;48.542;12.270;2023-01-23T16:28:19;1.60;99.90
20524;DHT22;10420;48.542;12.270;2023-01-23T16:33:21;1.70;99.90
20524;DHT22;10420;48.542;12.270;2023-01-23T16:38:24;1.60;99.90
20524;DHT22;10420;48.542;12.270;2023-01-23T16:43:26;1.50;99.90
20524;DHT22;10420;48.542;12.270;2023-01-23T16:48:27;1.50;99.90
20524;DHT22;10420;48.542;12.270;2023-01-23T16:53:32;1.50;99.90
20524;DHT22;10420;48.542;12.270;2023-01-23T16:58:37;1.40;99.90
20524;DHT22;10420;48.542;12.270;2023-01-23T17:03:39;1.50;99.90
20524;DHT22;10420;48.542;12.270;2023-01-23T17:08:40;1.40;99.90
20524;DHT22;10420;48.542;12.270;2023-01-23T17:13:41;1.60;99.90
20524;DHT22;10420;48.542;12.270;2023-01-23T17:18:42;1.70;99.90
20524;DHT22;10420;48.542;12.270;2023-01-23T17:23:43;1.80;99.90
20524;DHT22;10420;48.542;12.270;2023-01-23T17:28:44;1.90;99.90
20524;DHT22;10420;48.542;12.270;2023-01-23T17:33:45;1.70;99.90
20524;DHT22;10420;48.542;12.270;2023-01-23T17:38:46;1.50;99.90
20524;DHT22;10420;48.542;12.270;2023-01-23T17:43:46;1.40;99.90
20524;DHT22;10420;48.542;12.270;2023-01-23T17:48:47;1.50;99.90
20524;DHT22;10420;48.542;12.270;2023-01-23T17:53:48;1.40;99.90
20524;DHT22;10420;48.542;12.270;2023-01-23T17:58:49;1.50;99.90
20524;DHT22;10420;48.542;12.270;2023-01-23T18:03:50;1.50;99.90
20524;DHT22;10420;48.542;12.270;2023-01-23T18:08:51;1.60;99.90
20524;DHT22;10420;48.542;12.270;2023-01-23T18:14:10;1.70;99.90
20524;DHT22;10420;48.542;12.270;2023-01-23T18:19:19;1.70;99.90
20524;DHT22;10420;48.542;12.270;2023-01-23T18:24:25;1.40;99.90
20524;DHT22;10420;48.542;12.270;2023-01-23T18:34:57;1.40;99.90
20524;DHT22;10420;48.542;12.270;2023-01-23T18:40:38;1.40;99.90
20524;DHT22;10420;48.542;12.270;2023-01-23T18:45:36;1.30;99.90
20524;DHT22;10420;48.542;12.270;2023-01-23T18:50:38;1.30;99.90
20524;DHT22;10420;48.542;12.270;2023-01-23T18:56:09;1.30;99.90
20524;DHT22;10420;48.542;12.270;2023-01-23T19:06:29;1.60;99.90
20524;DHT22;10420;48.542;12.270;2023-01-23T19:12:00;1.70;99.90
20524;DHT22;10420;48.542;12.270;2023-01-23T19:22:25;1.80;99.90
20524;DHT22;10420;48.542;12.270;2023-01-23T19:27:28;1.80;99.90
20524;DHT22;10420;48.542;12.270;2023-01-23T19:32:31;1.80;99.90
20524;DHT22;10420;48.542;12.270;2023-01-23T19:37:31;1.50;99.90
20524;DHT22;10420;48.542;12.270;2023-01-23T19:42:37;1.60;99.90
20524;DHT22;10420;48.542;12.270;2023-01-23T19:47:38;1.70;99.90
20524;DHT22;10420;48.542;12.270;2023-01-23T19:52:39;1.60;99.90
20524;DHT22;10420;48.542;12.270;2023-01-23T19:57:39;1.70;99.90
20524;DHT22;10420;48.542;12.270;2023-01-23T20:02:40;1.70;99.90
20524;DHT22;10420;48.542;12.270;2023-01-23T20:07:41;1.50;99.90
20524;DHT22;10420;48.542;12.270;2023-01-23T20:12:46;1.50;99.90
20524;DHT22;10420;48.542;12.270;2023-01-23T20:17:55;1.40;99.90
20524;DHT22;10420;48.542;12.270;2023-01-23T20:22:56;1.40;99.90
20524;DHT22;10420;48.542;12.270;2023-01-23T20:27:57;1.60;99.90
20524;DHT22;10420;48.542;12.270;2023-01-23T20:32:57;1.50;99.90
20524;DHT22;10420;48.542;12.270;2023-01-23T20:37:58;1.50;99.90
20524;DHT22;10420;48.542;12.270;2023-01-23T20:42:59;1.40;99.90
20524;DHT22;10420;48.542;12.270;2023-01-23T20:47:59;1.40;99.90
20524;DHT22;10420;48.542;12.270;2023-01-23T20:53:00;1.60;99.90
20524;DHT22;10420;48.542;12.270;2023-01-23T20:58:19;1.50;99.90
20524;DHT22;10420;48.542;12.270;2023-01-23T21:03:40;1.60;99.90
20524;DHT22;10420;48.542;12.270;2023-01-23T21:08:41;1.40;99.90
20524;DHT22;10420;48.542;12.270;2023-01-23T21:13:43;1.40;99.90
20524;DHT22;10420;48.542;12.270;2023-01-23T21:18:44;1.40;99.90
20524;DHT22;10420;48.542;12.270;2023-01-23T21:23:47;1.40;99.90
20524;DHT22;10420;48.542;12.270;2023-01-23T21:28:50;1.40;99.90
20524;DHT22;10420;48.542;12.270;2023-01-23T21:33:51;1.40;99.90
20524;DHT22;10420;48.542;12.270;2023-01-23T21:38:52;1.40;99.90
20524;DHT22;10420;48.542;12.270;2023-01-23T21:43:53;1.50;99.90
20524;DHT22;10420;48.542;12.270;2023-01-23T21:48:54;1.40;99.90
20524;DHT22;10420;48.542;12.270;2023-01-23T21:53:55;1.30;99.90
20524;DHT22;10420;48.542;12.270;2023-01-23T21:58:55;1.50;99.90
20524;DHT22;10420;48.542;12.270;2023-01-23T22:03:58;1.30;99.90
20524;DHT22;10420;48.542;12.270;2023-01-23T22:08:59;1.30;99.90
20524;DHT22;10420;48.542;12.270;2023-01-23T22:13:59;1.30;99.90
20524;DHT22;10420;48.542;12.270;2023-01-23T22:19:00;1.30;99.90
20524;DHT22;10420;48.542;12.270;2023-01-23T22:24:01;1.40;99.90
20524;DHT22;10420;48.542;12.270;2023-01-23T22:29:01;1.40;99.90
20524;DHT22;10420;48.542;12.270;2023-01-23T22:34:02;1.40;99.90
20524;DHT22;10420;48.542;12.270;2023-01-23T22:39:03;1.40;99.90
20524;DHT22;10420;48.542;12.270;2023-01-23T22:44:03;1.50;99.90
20524;DHT22;10420;48.542;12.270;2023-01-23T22:49:04;1.60;99.90
20524;DHT22;10420;48.542;12.270;2023-01-23T22:54:05;1.40;99.90
20524;DHT22;10420;48.542;12.270;2023-01-23T22:59:05;1.40;99.90
20524;DHT22;10420;48.542;12.270;2023-01-23T23:04:06;1.30;99.90
20524;DHT22;10420;48.542;12.270;2023-01-23T23:09:07;1.40;99.90
20524;DHT22;10420;48.542;12.270;2023-01-23T23:14:09;1.50;99.90
20524;DHT22;10420;48.542;12.270;2023-01-23T23:19:10;1.50;99.90
20524;DHT22;10420;48.542;12.270;2023-01-23T23:24:11;1.60;99.90
20524;DHT22;10420;48.542;12.270;2023-01-23T23:29:13;1.50;99.90
20524;DHT22;10420;48.542;12.270;2023-01-23T23:34:14;1.50;99.90
20524;DHT22;10420;48.542;12.270;2023-01-23T23:39:14;1.50;99.90
20524;DHT22;10420;48.542;12.270;2023-01-23T23:44:15;1.40;99.90
20524;DHT22;10420;48.542;12.270;2023-01-23T23:49:15;1.40;99.90
20524;DHT22;10420;48.542;12.270;2023-01-23T23:54:16;1.50;99.90
20524;DHT22;10420;48.542;12.270;2023-01-23T23:59:17;1.60;99.90
